createdAt,value
2016-06-24T00:00:12.931Z,73.2
2016-06-24T00:01:12.928Z,72.53
2016-06-24T00:02:12.933Z,73.1
2016-06-24T00:03:12.940Z,73.3
2016-06-24T00:04:13.991Z,73.39
2016-06-24T00:05:13.483Z,73.01
2016-06-24T00:06:27.364Z,73.1
2016-06-24T00:07:13.043Z,72.91
2016-06-24T00:08:12.333Z,73.39
2016-06-24T00:09:12.946Z,73.39
2016-06-24T00:10:12.946Z,73.68
2016-06-24T00:11:12.342Z,73.97
2016-06-24T00:12:12.342Z,73.78
2016-06-24T00:13:12.344Z,73.97
2016-06-24T00:14:12.350Z,73.88
2016-06-24T00:15:12.350Z,74.16
2016-06-24T00:16:12.338Z,74.45
2016-06-24T00:17:12.972Z,74.36
2016-06-24T00:18:12.962Z,74.45
2016-06-24T00:19:12.354Z,73.97
2016-06-24T00:20:12.977Z,74.26
2016-06-24T00:21:12.374Z,74.65
2016-06-24T00:22:12.963Z,74.36
2016-06-24T00:23:12.358Z,74.55
2016-06-24T00:24:12.969Z,74.84
2016-06-24T00:25:12.370Z,74.84
2016-06-24T00:26:12.972Z,74.93
2016-06-24T00:27:12.366Z,74.45
2016-06-24T00:28:12.361Z,74.65
2016-06-24T00:29:12.980Z,75.13
2016-06-24T00:30:12.380Z,75.61
2016-06-24T00:31:12.378Z,75.23
2016-06-24T00:32:12.370Z,75.32
2016-06-24T00:33:12.374Z,75.32
2016-06-24T00:34:12.982Z,75.32
2016-06-24T00:35:12.989Z,75.23
2016-06-24T00:36:12.396Z,75.03
2016-06-24T00:37:12.385Z,75.28
2016-06-24T00:38:12.386Z,75.19
2016-06-24T00:39:12.392Z,75.19
2016-06-24T00:40:13.003Z,75.28
2016-06-24T00:41:12.387Z,75.38
2016-06-24T00:42:12.392Z,75.57
2016-06-24T00:43:12.393Z,75.67
2016-06-24T00:44:12.398Z,75.86
2016-06-24T00:45:12.394Z,75.57
2016-06-24T00:46:13.001Z,75.86
2016-06-24T00:47:12.409Z,75.96
2016-06-24T00:48:13.010Z,76.06
2016-06-24T00:49:12.407Z,75.86
2016-06-24T00:50:12.399Z,75.76
2016-06-24T00:51:12.401Z,76.34
2016-06-24T00:52:12.403Z,76.53
2016-06-24T00:53:12.407Z,76.92
2016-06-24T00:54:12.405Z,76.63
2016-06-24T00:55:13.017Z,76.73
2016-06-24T00:56:14.570Z,76.92
2016-06-24T00:57:12.405Z,76.5
2016-06-24T00:58:13.746Z,77.26
2016-06-24T00:59:12.412Z,76.98
2016-06-24T01:00:12.421Z,76.98
2016-06-24T01:01:13.022Z,77.75
2016-06-24T01:02:12.420Z,77.56
2016-06-24T01:03:13.030Z,77.56
2016-06-24T01:04:13.035Z,77.36
2016-06-24T01:05:13.034Z,77.84
2016-06-24T01:06:13.138Z,78.13
2016-06-24T01:07:13.721Z,78.03
2016-06-24T01:08:13.092Z,78.13
2016-06-24T01:09:12.428Z,78.13
2016-06-24T01:10:12.430Z,78.13
2016-06-24T01:11:13.034Z,77.75
2016-06-24T01:12:13.037Z,78.13
2016-06-24T01:13:12.884Z,78.42
2016-06-24T01:14:13.048Z,78.52
2016-06-24T01:15:13.849Z,78.61
2016-06-24T01:16:27.460Z,78.81
2016-06-24T01:18:13.042Z,78.96
2016-06-24T01:19:12.442Z,78.61
2016-06-24T01:20:12.442Z,78.9
2016-06-24T01:21:12.440Z,79.05
2016-06-24T01:22:13.045Z,79.44
2016-06-24T01:23:12.441Z,79.35
2016-06-24T01:24:13.326Z,79.44
2016-06-24T01:25:12.447Z,79.44
2016-06-24T01:26:13.055Z,79.15
2016-06-24T01:27:13.063Z,80.02
2016-06-24T01:28:13.071Z,80.21
2016-06-24T01:29:12.455Z,80.3
2016-06-24T01:30:13.058Z,79.82
2016-06-24T01:31:12.446Z,80.3
2016-06-24T01:32:12.458Z,80.4
2016-06-24T01:33:12.462Z,80.5
2016-06-24T01:34:13.063Z,80.5
2016-06-24T01:35:12.453Z,80.69
2016-06-24T01:36:13.067Z,80.98
2016-06-24T01:37:13.075Z,81.07
2016-06-24T01:38:13.067Z,81.07
2016-06-24T01:39:12.460Z,80.98
2016-06-24T01:40:12.459Z,80.79
2016-06-24T01:41:13.078Z,81.65
2016-06-24T01:42:12.466Z,81.42
2016-06-24T01:43:13.094Z,81.23
2016-06-24T01:44:12.463Z,80.94
2016-06-24T01:45:13.072Z,81.46
2016-06-24T01:46:13.069Z,81.52
2016-06-24T01:47:12.486Z,81.32
2016-06-24T01:48:12.470Z,81.9
2016-06-24T01:49:12.470Z,81.32
2016-06-24T01:50:13.083Z,81.71
2016-06-24T01:51:12.468Z,81.99
2016-06-24T01:52:12.480Z,81.71
2016-06-24T01:53:12.464Z,81.81
2016-06-24T01:54:13.077Z,81.61
2016-06-24T01:55:13.087Z,81.42
2016-06-24T01:56:12.474Z,81.81
2016-06-24T01:57:12.479Z,82.09
2016-06-24T01:58:13.083Z,82.09
2016-06-24T01:59:13.086Z,81.71
2016-06-24T02:00:13.086Z,81.81
2016-06-24T02:01:12.475Z,81.61
2016-06-24T02:02:12.476Z,82.19
2016-06-24T02:03:12.487Z,82.09
2016-06-24T02:04:12.482Z,82.57
2016-06-24T02:05:13.098Z,82.57
2016-06-24T02:06:13.097Z,82.19
2016-06-24T02:07:13.094Z,82.38
2016-06-24T02:08:12.488Z,82.48
2016-06-24T02:09:13.094Z,82.76
2016-06-24T02:10:13.095Z,83.06
2016-06-24T02:11:13.096Z,82.86
2016-06-24T02:12:12.483Z,82.96
2016-06-24T02:13:12.490Z,82.86
2016-06-24T02:14:12.493Z,83.06
2016-06-24T02:15:13.689Z,83.25
2016-06-24T02:16:14.522Z,82.96
2016-06-24T02:17:14.274Z,83.15
2016-06-24T02:18:13.560Z,83.15
2016-06-24T02:19:13.101Z,83.06
2016-06-24T02:20:13.102Z,83.63
2016-06-24T02:21:12.489Z,83.34
2016-06-24T02:22:12.502Z,83.34
2016-06-24T02:23:13.097Z,83.25
2016-06-24T02:24:12.560Z,83.44
2016-06-24T02:25:13.894Z,83.15
2016-06-24T02:26:13.108Z,83.25
2016-06-24T02:27:13.101Z,83.63
2016-06-24T02:28:13.364Z,83.44
2016-06-24T02:29:12.495Z,84.21
2016-06-24T02:30:12.499Z,84.11
2016-06-24T02:31:12.494Z,84.11
2016-06-24T02:32:14.203Z,84.01
2016-06-24T02:33:12.502Z,84.21
2016-06-24T02:34:12.719Z,84.21
2016-06-24T02:35:12.506Z,84.11
2016-06-24T02:36:13.475Z,84.4
2016-06-24T02:37:13.655Z,84.01
2016-06-24T02:38:13.109Z,84.45
2016-06-24T02:39:12.505Z,83.92
2016-06-24T02:40:13.137Z,84.01
2016-06-24T02:41:12.551Z,84.21
2016-06-24T02:42:12.947Z,84.59
2016-06-24T02:44:13.162Z,84.59
2016-06-24T02:45:13.906Z,84.59
2016-06-24T02:46:12.508Z,84.5
2016-06-24T02:47:13.112Z,84.59
2016-06-24T02:48:12.543Z,84.69
2016-06-24T02:49:12.501Z,84.4
2016-06-24T02:50:13.114Z,84.78
2016-06-24T02:51:13.123Z,84.4
2016-06-24T02:52:13.121Z,84.4
2016-06-24T02:53:12.509Z,84.78
2016-06-24T02:54:13.122Z,84.59
2016-06-24T02:55:12.510Z,84.4
2016-06-24T02:56:13.114Z,84.3
2016-06-24T02:57:13.121Z,84.59
2016-06-24T02:58:13.123Z,83.92
2016-06-24T02:59:13.122Z,84.01
2016-06-24T03:00:13.119Z,84.11
2016-06-24T03:01:13.135Z,84.11
2016-06-24T03:02:13.119Z,84.3
2016-06-24T03:03:13.122Z,84.21
2016-06-24T03:04:13.131Z,83.63
2016-06-24T03:05:13.127Z,84.01
2016-06-24T03:06:12.522Z,84.11
2016-06-24T03:07:13.124Z,84.4
2016-06-24T03:08:13.137Z,83.92
2016-06-24T03:09:12.510Z,83.53
2016-06-24T03:10:12.521Z,83.63
2016-06-24T03:11:13.134Z,83.48
2016-06-24T03:12:13.130Z,83.39
2016-06-24T03:13:13.123Z,83.09
2016-06-24T03:14:13.134Z,83.67
2016-06-24T03:15:12.519Z,83.29
2016-06-24T03:16:13.130Z,83.58
2016-06-24T03:17:12.521Z,83.58
2016-06-24T03:18:12.523Z,83.48
2016-06-24T03:19:12.534Z,83.67
2016-06-24T03:20:13.178Z,83.09
2016-06-24T03:21:13.135Z,83.39
2016-06-24T03:22:12.531Z,83.19
2016-06-24T03:23:12.526Z,83.39
2016-06-24T03:24:12.526Z,83.09
2016-06-24T03:25:13.140Z,82.27
2016-06-24T03:26:12.526Z,82.46
2016-06-24T03:27:13.139Z,82.17
2016-06-24T03:28:13.136Z,81.83
2016-06-24T03:29:12.541Z,81.73
2016-06-24T03:30:12.537Z,81.58
2016-06-24T03:31:12.540Z,80.52
2016-06-24T03:32:12.542Z,80.18
2016-06-24T03:33:14.405Z,79.41
2016-06-24T03:34:13.328Z,78.96
2016-06-24T03:35:12.553Z,78
2016-06-24T03:36:13.239Z,77.17
2016-06-24T03:37:12.549Z,76.82
2016-06-24T03:38:12.549Z,75.85
2016-06-24T03:39:12.550Z,75.12
2016-06-24T03:40:13.194Z,75.12
2016-06-24T03:41:12.564Z,74.19
2016-06-24T03:42:12.937Z,73.32
2016-06-24T03:43:13.245Z,72.3
2016-06-24T03:44:12.567Z,72.14
2016-06-24T03:45:13.714Z,71.08
2016-06-24T03:46:14.085Z,70.72
2016-06-24T03:47:12.616Z,69.31
2016-06-24T03:48:12.720Z,68.63
2016-06-24T03:49:13.198Z,68.47
2016-06-24T03:50:12.597Z,67.63
2016-06-24T03:51:13.462Z,66.47
2016-06-24T03:52:13.577Z,66.02
2016-06-24T03:54:12.796Z,64.3
2016-06-24T03:55:13.583Z,63.26
2016-06-24T03:56:13.658Z,62.42
2016-06-24T03:57:13.244Z,61.84
2016-06-24T03:58:12.647Z,60.8
2016-06-24T03:59:13.742Z,60.61
2016-06-24T04:00:14.270Z,59.86
2016-06-24T04:01:12.896Z,59.18
2016-06-24T04:02:13.278Z,58.33
2016-06-24T04:03:13.289Z,57.95
2016-06-24T04:04:12.686Z,57.29
2016-06-24T04:05:13.300Z,56.45
2016-06-24T04:06:13.305Z,56.18
2016-06-24T04:07:13.317Z,55.01
2016-06-24T04:08:12.722Z,54.85
2016-06-24T04:09:12.718Z,53.7
2016-06-24T04:10:12.734Z,52.92
2016-06-24T04:11:12.746Z,52.75
2016-06-24T04:12:13.359Z,52.26
2016-06-24T04:13:13.370Z,51.31
2016-06-24T04:14:12.765Z,50.82
2016-06-24T04:15:12.769Z,50.46
2016-06-24T04:16:12.793Z,49.98
2016-06-24T04:17:13.508Z,49.12
2016-06-24T04:18:13.424Z,48.36
2016-06-24T04:19:13.431Z,48.26
2016-06-24T04:20:13.433Z,46.53
2016-06-24T04:21:13.446Z,46.84
2016-06-24T04:22:12.843Z,45.97
2016-06-24T04:23:12.867Z,45.69
2016-06-24T04:24:13.470Z,44.73
2016-06-24T04:25:13.492Z,44.05
2016-06-24T04:26:13.490Z,43.58
2016-06-24T04:27:12.902Z,42.7
2016-06-24T04:28:13.514Z,42.62
2016-06-24T04:29:13.529Z,42.03
2016-06-24T04:30:12.934Z,41.86
2016-06-24T04:31:12.956Z,40.88
2016-06-24T04:32:13.561Z,40.8
2016-06-24T04:33:12.967Z,40.23
2016-06-24T04:34:12.986Z,39.15
2016-06-24T04:35:13.594Z,38.58
2016-06-24T04:36:13.615Z,38.6
2016-06-24T04:37:13.623Z,37.82
2016-06-24T04:38:13.029Z,37.93
2016-06-24T04:39:13.038Z,37.44
2016-06-24T04:40:13.650Z,36.88
2016-06-24T04:41:13.057Z,36.3
2016-06-24T04:42:13.081Z,35.31
2016-06-24T04:43:13.692Z,35.41
2016-06-24T04:44:13.100Z,35.13
2016-06-24T04:45:13.723Z,34.05
2016-06-24T04:46:13.734Z,34.06
2016-06-24T04:47:13.750Z,33.87
2016-06-24T04:48:13.159Z,33.29
2016-06-24T04:49:13.774Z,33.2
2016-06-24T04:50:13.189Z,32.62
2016-06-24T04:51:13.200Z,31.95
2016-06-24T04:52:13.351Z,31.57
2016-06-24T04:53:14.495Z,31.29
2016-06-24T04:54:14.034Z,30.81
2016-06-24T04:55:13.261Z,30.41
2016-06-24T04:56:13.479Z,29.93
2016-06-24T04:57:13.898Z,29.44
2016-06-24T04:58:13.900Z,29.83
2016-06-24T04:59:13.320Z,29.65
2016-06-24T05:00:14.331Z,29.16
2016-06-24T05:01:13.941Z,29.16
2016-06-24T05:02:14.998Z,29.16
2016-06-24T05:03:15.327Z,28.56
2016-06-24T05:04:14.658Z,28.48
2016-06-24T05:05:13.411Z,27.8
2016-06-24T05:06:14.019Z,27.8
2016-06-24T05:07:14.353Z,27.5
2016-06-24T05:08:13.457Z,26.73
2016-06-24T05:09:14.678Z,26.92
2016-06-24T05:10:28.753Z,26.34
2016-06-24T05:11:14.097Z,26.34
2016-06-24T05:12:13.957Z,26.45
2016-06-24T05:13:13.722Z,25.86
2016-06-24T05:14:14.138Z,25.67
2016-06-24T05:15:14.167Z,25.38
2016-06-24T05:16:13.575Z,25.19
2016-06-24T05:17:14.457Z,24.49
2016-06-24T05:18:14.217Z,25.2
2016-06-24T05:19:14.231Z,24.62
2016-06-24T05:20:14.539Z,24.53
2016-06-24T05:21:14.269Z,23.72
2016-06-24T05:22:13.770Z,24.04
2016-06-24T05:23:13.876Z,24.04
2016-06-24T05:24:13.709Z,23.45
2016-06-24T05:25:14.336Z,23.26
2016-06-24T05:26:14.359Z,23.26
2016-06-24T05:27:13.754Z,22.38
2016-06-24T05:28:13.769Z,22.38
2016-06-24T05:29:13.791Z,22.29
2016-06-24T05:30:13.809Z,21.6
2016-06-24T05:31:13.826Z,21.8
2016-06-24T05:32:13.847Z,21.3
2016-06-24T05:33:14.468Z,21.41
2016-06-24T05:34:14.486Z,21.3
2016-06-24T05:35:14.513Z,20.9
2016-06-24T05:36:13.930Z,20.9
2016-06-24T05:37:13.939Z,21.11
2016-06-24T05:38:13.960Z,20.9
2016-06-24T05:39:13.977Z,20.61
2016-06-24T05:40:13.991Z,20.22
2016-06-24T05:41:14.624Z,20.32
2016-06-24T05:42:14.648Z,20.02
2016-06-24T05:43:14.658Z,20.13
2016-06-24T05:44:14.061Z,20.32
2016-06-24T05:45:14.700Z,20.03
2016-06-24T05:46:14.717Z,19.43
2016-06-24T05:47:14.125Z,19.63
2016-06-24T05:48:14.152Z,19.42
2016-06-24T05:49:14.786Z,19.52
2016-06-24T05:50:14.183Z,19.61
2016-06-24T05:51:14.817Z,19.51
2016-06-24T05:52:14.229Z,19.41
2016-06-24T05:53:14.238Z,19.71
2016-06-24T05:54:14.262Z,19.7
2016-06-24T05:55:14.909Z,19.8
2016-06-24T05:56:14.910Z,19.7
2016-06-24T05:57:14.329Z,19.71
2016-06-24T05:58:14.336Z,19.71
2016-06-24T05:59:14.967Z,19.61
2016-06-24T06:00:15.002Z,19.71
2016-06-24T06:01:15.011Z,19.82
2016-06-24T06:02:15.029Z,19.81
2016-06-24T06:03:14.437Z,19.42
2016-06-24T06:04:14.466Z,19.52
2016-06-24T06:05:14.481Z,19.62
2016-06-24T06:06:15.116Z,19.22
2016-06-24T06:07:14.515Z,19.42
2016-06-24T06:08:15.143Z,19.22
2016-06-24T06:10:15.488Z,19.53
2016-06-24T06:11:14.830Z,19.02
2016-06-24T06:12:16.591Z,19.63
2016-06-24T06:13:15.250Z,19.22
2016-06-24T06:14:16.097Z,19.51
2016-06-24T06:15:15.403Z,19.61
2016-06-24T06:16:15.314Z,19.51
2016-06-24T06:17:15.571Z,19.51
2016-06-24T06:18:14.728Z,19.31
2016-06-24T06:19:16.273Z,19.61
2016-06-24T06:20:16.323Z,19.6
2016-06-24T06:21:14.904Z,20.01
2016-06-24T06:22:14.805Z,19.41
2016-06-24T06:23:15.438Z,19.41
2016-06-24T06:24:14.855Z,19.8
2016-06-24T06:25:14.869Z,19.7
2016-06-24T06:26:15.511Z,19.71
2016-06-24T06:27:15.532Z,19.41
2016-06-24T06:28:15.738Z,19.41
2016-06-24T06:29:14.950Z,19.22
2016-06-24T06:30:15.791Z,19.32
2016-06-24T06:31:15.606Z,19.83
2016-06-24T06:32:15.635Z,19.33
2016-06-24T06:33:15.643Z,19.03
2016-06-24T06:34:15.863Z,19.23
2016-06-24T06:35:15.702Z,18.94
2016-06-24T06:36:15.716Z,18.74
2016-06-24T06:37:15.477Z,18.64
2016-06-24T06:38:15.191Z,18.74
2016-06-24T06:39:15.313Z,18.25
2016-06-24T06:40:15.789Z,18.65
2016-06-24T06:41:15.556Z,18.24
2016-06-24T06:42:15.841Z,18.24
2016-06-24T06:43:15.254Z,18.34
2016-06-24T06:44:15.263Z,18.45
2016-06-24T06:45:15.901Z,18.25
2016-06-24T06:46:15.923Z,18.45
2016-06-24T06:47:15.331Z,18.25
2016-06-24T06:48:15.953Z,18.25
2016-06-24T06:49:15.366Z,18.66
2016-06-24T06:50:15.392Z,17.96
2016-06-24T06:51:16.016Z,17.86
2016-06-24T06:52:15.439Z,18.16
2016-06-24T06:53:15.451Z,17.77
2016-06-24T06:54:15.473Z,17.67
2016-06-24T06:55:15.498Z,18.06
2016-06-24T06:56:16.123Z,17.96
2016-06-24T06:57:15.566Z,17.97
2016-06-24T06:58:16.180Z,17.87
2016-06-24T06:59:16.190Z,17.77
2016-06-24T07:00:16.207Z,17.77
2016-06-24T07:01:15.647Z,17.87
2016-06-24T07:02:15.647Z,17.87
2016-06-24T07:03:16.280Z,18.07
2016-06-24T07:04:16.297Z,17.97
2016-06-24T07:05:16.323Z,17.87
2016-06-24T07:06:16.343Z,17.67
2016-06-24T07:07:16.358Z,17.57
2016-06-24T07:08:15.775Z,17.47
2016-06-24T07:09:15.795Z,17.76
2016-06-24T07:10:15.817Z,18.06
2016-06-24T07:11:16.447Z,17.96
2016-06-24T07:12:15.861Z,17.76
2016-06-24T07:13:15.886Z,17.76
2016-06-24T07:14:15.907Z,17.95
2016-06-24T07:15:16.541Z,17.95
2016-06-24T07:16:16.554Z,18.34
2016-06-24T07:17:16.064Z,18.24
2016-06-24T07:18:16.608Z,18.15
2016-06-24T07:19:16.622Z,18.74
2016-06-24T07:20:16.658Z,18.84
2016-06-24T07:21:16.675Z,18.73
2016-06-24T07:22:16.082Z,18.54
2016-06-24T07:23:16.799Z,18.73
2016-06-24T07:24:16.119Z,18.73
2016-06-24T07:25:16.755Z,18.63
2016-06-24T07:27:16.790Z,18.73
2016-06-24T07:28:18.264Z,18.62
2016-06-24T07:29:16.565Z,18.52
2016-06-24T07:30:16.877Z,18.62
2016-06-24T07:31:16.279Z,18.73
2016-06-24T07:32:16.298Z,18.82
2016-06-24T07:33:16.937Z,18.73
2016-06-24T07:34:16.358Z,19.12
2016-06-24T07:35:17.191Z,19.12
2016-06-24T07:36:16.407Z,19.71
2016-06-24T07:38:16.645Z,19.51
2016-06-24T07:39:16.439Z,19.51
2016-06-24T07:40:16.472Z,19.61
2016-06-24T07:41:17.273Z,19.51
2016-06-24T07:42:17.837Z,19.71
2016-06-24T07:43:16.541Z,19.8
2016-06-24T07:44:16.562Z,19.2
2016-06-24T07:45:17.192Z,19.39
2016-06-24T07:46:17.207Z,19.88
2016-06-24T07:47:16.872Z,19.78
2016-06-24T07:48:16.645Z,19.68
2016-06-24T07:49:16.668Z,19.68
2016-06-24T07:50:17.497Z,20.28
2016-06-24T07:51:16.711Z,19.88
2016-06-24T07:52:16.730Z,19.78
2016-06-24T07:53:16.756Z,19.78
2016-06-24T07:54:17.732Z,19.38
2016-06-24T07:55:17.870Z,19.78
2016-06-24T07:56:16.915Z,19.88
2016-06-24T07:57:17.453Z,20.07
2016-06-24T07:58:17.473Z,19.97
2016-06-24T07:59:16.883Z,20.07
2016-06-24T08:00:17.511Z,20.27
2016-06-24T08:01:16.927Z,19.86
2016-06-24T08:02:16.947Z,19.96
2016-06-24T08:03:16.969Z,19.95
2016-06-24T08:04:16.994Z,19.94
2016-06-24T08:05:17.084Z,20.73
2016-06-24T08:06:17.039Z,20.83
2016-06-24T08:07:17.066Z,20.83
2016-06-24T08:08:17.076Z,21.21
2016-06-24T08:09:17.706Z,21.11
2016-06-24T08:10:17.725Z,21.51
2016-06-24T08:11:17.759Z,21.71
2016-06-24T08:12:17.795Z,21.31
2016-06-24T08:13:17.785Z,21.31
2016-06-24T08:14:17.817Z,21.31
2016-06-24T08:15:17.231Z,21.8
2016-06-24T08:16:17.857Z,21.8
2016-06-24T08:17:17.969Z,21.8
2016-06-24T08:18:17.901Z,21.89
2016-06-24T08:19:17.314Z,22.28
2016-06-24T08:20:17.337Z,22.77
2016-06-24T08:21:17.962Z,22.27
2016-06-24T08:22:17.986Z,22.96
2016-06-24T08:23:17.392Z,23.07
2016-06-24T08:24:18.030Z,22.97
2016-06-24T08:25:18.047Z,23.16
2016-06-24T08:26:18.073Z,23.27
2016-06-24T08:27:18.089Z,23.07
2016-06-24T08:28:18.118Z,23.37
2016-06-24T08:29:17.519Z,23.37
2016-06-24T08:30:17.534Z,23.47
2016-06-24T08:31:18.171Z,23.37
2016-06-24T08:32:17.578Z,23.06
2016-06-24T08:33:18.213Z,23.26
2016-06-24T08:34:18.231Z,23.85
2016-06-24T08:35:18.257Z,23.26
2016-06-24T08:36:18.275Z,23.06
2016-06-24T08:37:18.298Z,23.35
2016-06-24T08:38:18.319Z,23.55
2016-06-24T08:39:18.330Z,23.84
2016-06-24T08:40:18.357Z,23.74
2016-06-24T08:41:18.377Z,23.74
2016-06-24T08:42:17.786Z,23.94
2016-06-24T08:43:17.812Z,23.83
2016-06-24T08:44:17.828Z,23.84
2016-06-24T08:45:18.465Z,23.83
2016-06-24T08:46:19.346Z,24.22
2016-06-24T08:47:17.900Z,24.32
2016-06-24T08:48:18.747Z,24.14
2016-06-24T08:49:19.401Z,24.44
2016-06-24T08:50:18.806Z,24.44
2016-06-24T08:51:18.073Z,24.14
2016-06-24T08:52:18.611Z,24.24
2016-06-24T08:53:18.014Z,24.33
2016-06-24T08:54:18.654Z,24.54
2016-06-24T08:55:18.056Z,24.62
2016-06-24T08:56:20.014Z,24.32
2016-06-24T08:57:19.670Z,24.24
2016-06-24T08:58:19.156Z,24.24
2016-06-24T08:59:19.261Z,24.24
2016-06-24T09:00:18.169Z,24.62
2016-06-24T09:01:18.792Z,24.62
2016-06-24T09:02:18.197Z,24.51
2016-06-24T09:03:18.837Z,24.5
2016-06-24T09:04:19.199Z,24.88
2016-06-24T09:05:19.465Z,24.87
2016-06-24T09:06:18.788Z,24.97
2016-06-24T09:07:18.962Z,25.63
2016-06-24T09:08:18.325Z,25.62
2016-06-24T09:09:19.433Z,26.31
2016-06-24T09:10:18.954Z,25.9
2016-06-24T09:11:18.965Z,26.88
2016-06-24T09:12:18.986Z,26.98
2016-06-24T09:13:18.394Z,27.06
2016-06-24T09:14:18.414Z,27.95
2016-06-24T09:15:18.886Z,28.23
2016-06-24T09:16:18.440Z,28.33
2016-06-24T09:17:19.006Z,28.22
2016-06-24T09:18:18.768Z,28.81
2016-06-24T09:19:19.346Z,28.99
2016-06-24T09:20:18.495Z,29.38
2016-06-24T09:21:19.118Z,29.87
2016-06-24T09:22:19.138Z,29.37
2016-06-24T09:23:18.535Z,29.66
2016-06-24T09:24:19.165Z,30.33
2016-06-24T09:25:18.559Z,30.73
2016-06-24T09:26:18.583Z,30.53
2016-06-24T09:27:19.205Z,30.82
2016-06-24T09:28:18.599Z,30.91
2016-06-24T09:29:19.226Z,30.91
2016-06-24T09:30:19.229Z,31.4
2016-06-24T09:31:19.248Z,31.5
2016-06-24T09:32:19.252Z,31.58
2016-06-24T09:33:18.667Z,31.3
2016-06-24T09:34:19.295Z,31.77
2016-06-24T09:35:18.682Z,31.97
2016-06-24T09:36:18.701Z,31.87
2016-06-24T09:37:19.312Z,31.76
2016-06-24T09:38:18.729Z,32.17
2016-06-24T09:39:18.742Z,32.17
2016-06-24T09:40:19.350Z,32.84
2016-06-24T09:41:18.758Z,32.25
2016-06-24T09:42:18.769Z,32.84
2016-06-24T09:43:18.784Z,32.46
2016-06-24T09:44:18.785Z,32.74
2016-06-24T09:45:18.802Z,32.45
2016-06-24T09:46:18.811Z,32.54
2016-06-24T09:47:19.437Z,32.66
2016-06-24T09:48:19.443Z,32.76
2016-06-24T09:49:19.463Z,32.84
2016-06-24T09:50:18.870Z,33.04
2016-06-24T09:51:19.476Z,33.15
2016-06-24T09:52:19.494Z,33.14
2016-06-24T09:53:19.497Z,32.95
2016-06-24T09:54:18.903Z,33.15
2016-06-24T09:55:18.908Z,33.14
2016-06-24T09:56:18.916Z,33.15
2016-06-24T09:57:18.933Z,33.44
2016-06-24T09:58:19.552Z,33.14
2016-06-24T09:59:19.565Z,33.34
2016-06-24T10:00:19.575Z,33.64
2016-06-24T10:01:18.966Z,33.54
2016-06-24T10:02:19.593Z,33.34
2016-06-24T10:03:19.607Z,33.54
2016-06-24T10:04:19.622Z,33.44
2016-06-24T10:05:19.754Z,33.25
2016-06-24T10:06:20.959Z,32.95
2016-06-24T10:07:20.463Z,32.95
2016-06-24T10:08:19.383Z,32.86
2016-06-24T10:09:19.858Z,33.05
2016-06-24T10:10:19.547Z,33.15
2016-06-24T10:11:19.690Z,33.15
2016-06-24T10:12:19.694Z,33.25
2016-06-24T10:13:19.708Z,32.95
2016-06-24T10:14:21.335Z,32.87
2016-06-24T10:15:19.134Z,32.78
2016-06-24T10:16:19.972Z,32.68
2016-06-24T10:17:19.744Z,32.28
2016-06-24T10:18:20.715Z,32.28
2016-06-24T10:19:19.773Z,32.28
2016-06-24T10:20:19.184Z,32.18
2016-06-24T10:21:19.186Z,31.89
2016-06-24T10:22:19.810Z,31.79
2016-06-24T10:23:20.526Z,31.4
2016-06-24T10:24:19.928Z,31.7
2016-06-24T10:25:19.230Z,31.7
2016-06-24T10:26:20.401Z,31.3
2016-06-24T10:27:19.871Z,31.4
2016-06-24T10:28:19.263Z,31.3
2016-06-24T10:29:19.271Z,31.2
2016-06-24T10:30:19.902Z,31.4
2016-06-24T10:31:19.939Z,31.3
2016-06-24T10:32:19.908Z,30.81
2016-06-24T10:33:19.324Z,30.71
2016-06-24T10:34:19.936Z,30.42
2016-06-24T10:35:19.338Z,29.93
2016-06-24T10:36:34.226Z,29.73
2016-06-24T10:37:19.970Z,29.63
2016-06-24T10:38:19.981Z,29.53
2016-06-24T10:39:19.378Z,29.44
2016-06-24T10:40:19.995Z,29.83
2016-06-24T10:41:20.002Z,29.63
2016-06-24T10:42:19.410Z,29.83
2016-06-24T10:43:20.026Z,29.73
2016-06-24T10:44:19.430Z,29.83
2016-06-24T10:45:20.046Z,29.34
2016-06-24T10:46:20.068Z,29.93
2016-06-24T10:47:20.067Z,29.34
2016-06-24T10:48:19.469Z,29.44
2016-06-24T10:49:19.480Z,28.85
2016-06-24T10:50:19.498Z,29.34
2016-06-24T10:51:20.110Z,29.34
2016-06-24T10:52:20.122Z,29.44
2016-06-24T10:53:19.528Z,29.63
2016-06-24T10:54:19.535Z,29.44
2016-06-24T10:55:19.554Z,28.85
2016-06-24T10:56:19.564Z,28.85
2016-06-24T10:57:20.174Z,29.05
2016-06-24T10:58:19.585Z,28.95
2016-06-24T10:59:20.206Z,28.86
2016-06-24T11:00:19.598Z,28.85
2016-06-24T11:01:20.216Z,28.45
2016-06-24T11:02:20.218Z,28.77
2016-06-24T11:03:19.629Z,28.36
2016-06-24T11:04:19.651Z,28.96
2016-06-24T11:05:19.651Z,28.86
2016-06-24T11:06:20.274Z,29.05
2016-06-24T11:07:20.282Z,28.96
2016-06-24T11:08:20.289Z,28.86
2016-06-24T11:09:19.705Z,28.86
2016-06-24T11:10:19.697Z,28.77
2016-06-24T11:11:19.716Z,28.37
2016-06-24T11:12:20.338Z,28.27
2016-06-24T11:13:19.736Z,27.98
2016-06-24T11:14:20.361Z,27.98
2016-06-24T11:15:20.368Z,27.98
2016-06-24T11:16:19.777Z,28.08
2016-06-24T11:17:19.824Z,27.98
2016-06-24T11:18:19.797Z,27.98
2016-06-24T11:19:19.801Z,27.88
2016-06-24T11:20:19.808Z,27.98
2016-06-24T11:21:19.829Z,27.88
2016-06-24T11:22:20.442Z,27.78
2016-06-24T11:23:19.852Z,27.98
2016-06-24T11:24:20.731Z,27.98
2016-06-24T11:25:20.479Z,27.98
2016-06-24T11:26:20.482Z,28.08
2016-06-24T11:27:20.499Z,27.98
2016-06-24T11:28:20.585Z,27.88
2016-06-24T11:29:20.971Z,27.98
2016-06-24T11:30:20.008Z,27.78
2016-06-24T11:31:20.529Z,27.88
2016-06-24T11:32:22.147Z,27.78
2016-06-24T11:34:21.158Z,27.69
2016-06-24T11:35:21.970Z,27.59
2016-06-24T11:36:19.983Z,26.9
2016-06-24T11:37:19.987Z,27.69
2016-06-24T11:38:20.635Z,26.9
2016-06-24T11:39:20.917Z,28.08
2016-06-24T11:40:20.820Z,27.78
2016-06-24T11:41:20.075Z,27.78
2016-06-24T11:42:20.052Z,27.49
2016-06-24T11:43:34.931Z,27.78
2016-06-24T11:44:20.070Z,27.69
2016-06-24T11:45:20.582Z,27.88
2016-06-24T11:46:20.334Z,27.69
2016-06-24T11:47:21.069Z,27.78
2016-06-24T11:48:20.115Z,27.59
2016-06-24T11:49:20.729Z,27.59
2016-06-24T11:50:20.131Z,27.69
2016-06-24T11:51:20.154Z,27.59
2016-06-24T11:52:35.429Z,27.59
2016-06-24T11:53:20.158Z,27.59
2016-06-24T11:54:20.317Z,27.98
2016-06-24T11:55:20.182Z,27.78
2016-06-24T11:56:20.193Z,27.78
2016-06-24T11:57:20.807Z,27.69
2016-06-24T11:58:20.823Z,27.69
2016-06-24T11:59:20.226Z,27.88
2016-06-24T12:00:20.244Z,27.59
2016-06-24T12:01:20.248Z,27.88
2016-06-24T12:02:20.275Z,28.08
2016-06-24T12:03:20.877Z,27.98
2016-06-24T12:04:20.888Z,27.88
2016-06-24T12:05:20.303Z,27.98
2016-06-24T12:06:20.916Z,27.88
2016-06-24T12:07:20.922Z,27.88
2016-06-24T12:08:20.325Z,27.89
2016-06-24T12:09:20.329Z,27.8
2016-06-24T12:10:20.961Z,27.6
2016-06-24T12:11:20.959Z,27.89
2016-06-24T12:12:20.363Z,27.89
2016-06-24T12:13:20.374Z,27.6
2016-06-24T12:14:20.991Z,27.01
2016-06-24T12:15:20.446Z,27.4
2016-06-24T12:16:21.019Z,27.2
2016-06-24T12:17:20.573Z,27.31
2016-06-24T12:18:21.032Z,27.11
2016-06-24T12:19:21.070Z,26.52
2016-06-24T12:20:21.057Z,26.81
2016-06-24T12:21:20.464Z,26.91
2016-06-24T12:22:20.466Z,27.11
2016-06-24T12:23:21.083Z,27.01
2016-06-24T12:24:21.103Z,26.91
2016-06-24T12:25:20.518Z,26.73
2016-06-24T12:26:21.115Z,26.91
2016-06-24T12:27:21.139Z,26.92
2016-06-24T12:28:21.150Z,27.11
2016-06-24T12:29:20.553Z,26.73
2016-06-24T12:30:21.162Z,26.92
2016-06-24T12:31:21.172Z,26.92
2016-06-24T12:32:20.571Z,27.02
2016-06-24T12:33:21.194Z,26.73
2016-06-24T12:34:20.591Z,27.02
2016-06-24T12:35:20.607Z,26.82
2016-06-24T12:36:20.621Z,27.02
2016-06-24T12:37:20.631Z,26.92
2016-06-24T12:38:21.247Z,26.92
2016-06-24T12:39:21.255Z,26.92
2016-06-24T12:40:21.265Z,27.12
2016-06-24T12:41:21.273Z,26.63
2016-06-24T12:42:22.056Z,26.53
2016-06-24T12:43:21.819Z,26.63
2016-06-24T12:44:20.711Z,26.63
2016-06-24T12:45:21.600Z,26.24
2016-06-24T12:46:21.566Z,26.24
2016-06-24T12:47:21.345Z,26.14
2016-06-24T12:48:20.739Z,26.04
2016-06-24T12:49:20.762Z,26.04
2016-06-24T12:50:20.770Z,26.24
2016-06-24T12:51:21.946Z,25.84
2016-06-24T12:52:22.160Z,26.43
2016-06-24T12:53:20.803Z,26.43
2016-06-24T12:54:21.542Z,26.04
2016-06-24T12:55:20.819Z,25.84
2016-06-24T12:56:20.849Z,26.34
2016-06-24T12:57:21.457Z,25.37
2016-06-24T12:58:21.469Z,25.26
2016-06-24T12:59:21.476Z,25.26
2016-06-24T13:00:20.985Z,25.16
2016-06-24T13:02:21.497Z,25.26
2016-06-24T13:04:22.132Z,24.96